createdAt,value
2018-07-25T00:00:42.802Z,64.4
2018-07-25T00:01:43.484Z,64.8
2018-07-25T00:02:44.162Z,64.9
2018-07-25T00:03:44.892Z,64.9
2018-07-25T00:04:45.571Z,64.9
2018-07-25T00:05:46.252Z,65.0
2018-07-25T00:06:46.929Z,65.0
2018-07-25T00:07:47.607Z,65.0
2018-07-25T00:08:48.334Z,65.4
2018-07-25T00:09:49.064Z,65.2
2018-07-25T00:12:05.245Z,65.3
2018-07-25T00:13:05.922Z,65.1
2018-07-25T00:14:06.600Z,65.5
2018-07-25T00:15:07.277Z,65.8
2018-07-25T00:16:07.954Z,65.7
2018-07-25T00:17:08.633Z,65.6
2018-07-25T00:18:09.355Z,65.5
2018-07-25T00:19:10.034Z,65.7
2018-07-25T00:20:10.710Z,65.6
2018-07-25T00:21:11.389Z,65.3
2018-07-25T00:22:12.068Z,65.5
2018-07-25T00:23:12.791Z,65.5
2018-07-25T00:24:13.470Z,65.4
2018-07-25T00:25:14.198Z,66.2
2018-07-25T00:26:14.876Z,66.1
2018-07-25T00:27:15.554Z,66.1
2018-07-25T00:28:16.232Z,66.0
2018-07-25T00:29:16.910Z,65.7
2018-07-25T00:30:17.589Z,65.9
2018-07-25T00:31:18.265Z,66.3
2018-07-25T00:32:18.943Z,65.9
2018-07-25T00:33:19.620Z,66.1
2018-07-25T00:34:20.346Z,66.2
2018-07-25T00:35:21.025Z,66.1
2018-07-25T00:36:21.785Z,66.1
2018-07-25T00:37:22.380Z,66.7
2018-07-25T00:38:23.059Z,66.7
2018-07-25T00:39:23.737Z,66.3
2018-07-25T00:40:24.414Z,66.6
2018-07-25T00:41:25.092Z,66.7
2018-07-25T00:42:25.771Z,66.7
2018-07-25T00:43:26.449Z,66.7
2018-07-25T00:44:27.129Z,66.6
2018-07-25T00:45:27.805Z,66.6
2018-07-25T00:46:28.488Z,66.8
2018-07-25T00:47:29.205Z,66.7
2018-07-25T00:48:29.888Z,66.7
2018-07-25T00:49:30.607Z,66.7
2018-07-25T00:50:31.290Z,66.7
2018-07-25T00:51:31.961Z,66.7
2018-07-25T00:52:32.637Z,67.3
2018-07-25T00:53:33.316Z,67.0
2018-07-25T00:54:33.992Z,67.1
2018-07-25T00:55:34.675Z,66.7
2018-07-25T00:56:35.348Z,66.4
2018-07-25T00:57:36.024Z,66.8
2018-07-25T00:58:36.707Z,66.7
2018-07-25T00:59:37.427Z,66.7
2018-07-25T01:00:38.105Z,66.8
2018-07-25T01:01:38.785Z,66.8
2018-07-25T01:02:39.515Z,66.5
2018-07-25T01:03:40.194Z,66.6
2018-07-25T01:04:40.916Z,67.1
2018-07-25T01:05:41.594Z,67.0
2018-07-25T01:06:42.323Z,66.8
2018-07-25T01:07:43.052Z,67.2
2018-07-25T01:08:43.735Z,66.9
2018-07-25T01:09:44.411Z,67.1
2018-07-25T01:10:45.090Z,67.4
2018-07-25T01:11:45.770Z,67.3
2018-07-25T01:12:46.493Z,67.1
2018-07-25T01:13:47.221Z,67.6
2018-07-25T01:14:47.899Z,67.6
2018-07-25T01:15:48.577Z,67.4
2018-07-25T01:16:49.255Z,67.5
2018-07-25T01:18:51.585Z,67.8
2018-07-25T01:19:52.250Z,67.8
2018-07-25T01:20:52.917Z,68.3
2018-07-25T01:21:53.582Z,68.2
2018-07-25T01:22:54.247Z,68.0
2018-07-25T01:23:54.916Z,68.3
2018-07-25T01:24:55.579Z,68.2
2018-07-25T01:25:56.246Z,68.0
2018-07-25T01:26:56.914Z,67.9
2018-07-25T01:27:57.581Z,68.6
2018-07-25T01:28:58.272Z,68.7
2018-07-25T01:29:58.956Z,68.5
2018-07-25T01:30:59.627Z,68.5
2018-07-25T01:32:00.289Z,68.5
2018-07-25T01:33:00.956Z,68.8
2018-07-25T01:34:01.624Z,68.6
2018-07-25T01:35:02.294Z,68.7
2018-07-25T01:36:02.958Z,68.5
2018-07-25T01:37:03.622Z,68.7
2018-07-25T01:38:04.289Z,68.8
2018-07-25T01:39:05.006Z,69.0
2018-07-25T01:40:05.672Z,68.9
2018-07-25T01:41:06.339Z,69.2
2018-07-25T01:42:07.009Z,69.3
2018-07-25T01:43:07.675Z,69.2
2018-07-25T01:44:08.343Z,69.1
2018-07-25T01:45:09.061Z,69.6
2018-07-25T01:46:09.729Z,69.4
2018-07-25T01:47:10.397Z,69.9
2018-07-25T01:48:11.064Z,70.0
2018-07-25T01:49:11.737Z,70.1
2018-07-25T01:50:12.397Z,70.1
2018-07-25T01:51:13.113Z,69.8
2018-07-25T01:52:13.829Z,69.9
2018-07-25T01:53:14.494Z,70.2
2018-07-25T01:54:15.210Z,70.1
2018-07-25T01:55:15.877Z,70.1
2018-07-25T01:56:16.542Z,69.9
2018-07-25T01:57:17.215Z,69.9
2018-07-25T01:58:17.925Z,70.3
2018-07-25T01:59:18.591Z,70.3
2018-07-25T02:00:19.303Z,70.4
2018-07-25T02:01:19.989Z,70.4
2018-07-25T02:02:20.636Z,70.4
2018-07-25T02:03:21.302Z,70.6
2018-07-25T02:04:21.968Z,70.5
2018-07-25T02:05:22.634Z,70.5
2018-07-25T02:07:26.175Z,70.9
2018-07-25T02:08:27.043Z,70.5
2018-07-25T02:09:27.709Z,70.6
2018-07-25T02:10:28.377Z,70.7
2018-07-25T02:11:29.041Z,70.6
2018-07-25T02:12:29.710Z,71.2
2018-07-25T02:13:30.421Z,70.9
2018-07-25T02:14:31.089Z,71.0
2018-07-25T02:15:31.797Z,71.2
2018-07-25T02:16:32.464Z,71.3
2018-07-25T02:17:33.130Z,71.3
2018-07-25T02:18:33.797Z,71.4
2018-07-25T02:19:34.539Z,71.9
2018-07-25T02:20:35.167Z,71.3
2018-07-25T02:21:35.833Z,71.9
2018-07-25T02:22:36.499Z,71.6
2018-07-25T02:23:37.165Z,71.6
2018-07-25T02:24:37.837Z,71.7
2018-07-25T02:25:38.547Z,71.8
2018-07-25T02:26:39.266Z,71.8
2018-07-25T02:27:39.975Z,71.8
2018-07-25T02:28:40.644Z,72.3
2018-07-25T02:29:41.310Z,72.1
2018-07-25T02:30:41.978Z,72.0
2018-07-25T02:31:42.646Z,72.2
2018-07-25T02:32:43.312Z,71.9
2018-07-25T02:33:44.022Z,72.5
2018-07-25T02:34:44.688Z,72.4
2018-07-25T02:35:45.353Z,72.4
2018-07-25T02:36:46.019Z,72.6
2018-07-25T02:37:46.686Z,72.8
2018-07-25T02:38:47.356Z,72.4
2018-07-25T02:39:48.020Z,72.7
2018-07-25T02:40:48.692Z,72.7
2018-07-25T02:42:19.733Z,72.6
2018-07-25T02:43:20.385Z,72.7
2018-07-25T02:44:21.107Z,73.0
2018-07-25T02:45:21.784Z,72.5
2018-07-25T02:46:22.463Z,72.6
2018-07-25T02:47:23.140Z,72.8
2018-07-25T02:48:23.819Z,72.9
2018-07-25T02:49:24.497Z,72.6
2018-07-25T02:50:25.220Z,72.7
2018-07-25T02:51:25.898Z,72.7
2018-07-25T02:52:26.575Z,72.6
2018-07-25T02:53:27.254Z,72.8
2018-07-25T02:54:27.930Z,72.9
2018-07-25T02:55:28.610Z,72.6
2018-07-25T02:56:29.287Z,72.6
2018-07-25T02:57:29.966Z,73.1
2018-07-25T02:58:30.644Z,73.1
2018-07-25T02:59:31.321Z,72.9
2018-07-25T03:00:31.998Z,72.7
2018-07-25T03:01:32.674Z,73.2
2018-07-25T03:02:33.352Z,73.1
2018-07-25T03:03:34.029Z,72.9
2018-07-25T03:04:34.707Z,72.9
2018-07-25T03:05:35.390Z,73.1
2018-07-25T03:06:36.058Z,73.5
2018-07-25T03:07:36.738Z,73.2
2018-07-25T03:08:37.416Z,73.5
2018-07-25T03:09:38.099Z,73.2
2018-07-25T03:10:38.815Z,73.0
2018-07-25T03:11:39.542Z,73.2
2018-07-25T03:12:40.259Z,73.6
2018-07-25T03:13:40.937Z,73.0
2018-07-25T03:14:41.613Z,73.7
2018-07-25T03:15:42.292Z,73.4
2018-07-25T03:16:43.012Z,73.3
2018-07-25T03:17:43.650Z,73.3
2018-07-25T03:18:44.329Z,73.6
2018-07-25T03:19:45.005Z,73.5
2018-07-25T03:20:45.684Z,73.8
2018-07-25T03:21:46.362Z,73.9
2018-07-25T03:22:47.042Z,73.6
2018-07-25T03:23:47.762Z,73.6
2018-07-25T03:24:48.445Z,74.1
2018-07-25T03:25:49.121Z,74.2
2018-07-25T03:26:50.012Z,73.9
2018-07-25T03:27:50.728Z,74.3
2018-07-25T03:28:51.408Z,74.3
2018-07-25T03:29:52.087Z,74.4
2018-07-25T03:30:52.766Z,74.6
2018-07-25T03:31:53.444Z,74.3
2018-07-25T03:32:54.124Z,73.9
2018-07-25T03:33:54.803Z,74.3
2018-07-25T03:34:55.481Z,74.2
2018-07-25T03:35:56.160Z,74.3
2018-07-25T03:36:56.840Z,74.3
2018-07-25T03:37:57.521Z,74.6
2018-07-25T03:38:58.199Z,74.9
2018-07-25T03:39:58.878Z,74.7
2018-07-25T03:40:59.559Z,74.8
2018-07-25T03:42:00.283Z,74.5
2018-07-25T03:43:01.007Z,74.5
2018-07-25T03:44:01.695Z,74.6
2018-07-25T03:45:02.374Z,74.5
2018-07-25T03:46:03.055Z,74.7
2018-07-25T03:47:03.733Z,74.8
2018-07-25T03:48:04.413Z,74.7
2018-07-25T03:49:05.094Z,75.1
2018-07-25T03:50:05.774Z,74.9
2018-07-25T03:51:06.455Z,74.4
2018-07-25T03:52:07.134Z,74.6
2018-07-25T03:53:07.816Z,74.4
2018-07-25T03:54:08.495Z,74.8
2018-07-25T03:55:09.175Z,74.9
2018-07-25T03:56:09.854Z,74.9
2018-07-25T03:57:10.535Z,74.9
2018-07-25T03:58:11.215Z,74.6
2018-07-25T03:59:11.905Z,74.8
2018-07-25T04:00:12.578Z,74.7
2018-07-25T04:01:13.255Z,74.6
2018-07-25T04:02:13.937Z,74.7
2018-07-25T04:03:14.615Z,74.5
2018-07-25T04:04:15.296Z,74.7
2018-07-25T04:05:15.975Z,74.9
2018-07-25T04:06:16.656Z,74.9
2018-07-25T04:07:17.336Z,74.6
2018-07-25T04:08:18.030Z,74.8
2018-07-25T04:09:18.731Z,74.3
2018-07-25T04:10:19.375Z,74.2
2018-07-25T04:11:20.058Z,74.1
2018-07-25T04:12:20.736Z,74.4
2018-07-25T04:13:21.415Z,73.9
2018-07-25T04:14:22.099Z,74.2
2018-07-25T04:15:22.779Z,74.2
2018-07-25T04:16:23.461Z,74.3
2018-07-25T04:17:24.143Z,74.3
2018-07-25T04:18:24.824Z,74.1
2018-07-25T04:19:25.503Z,74.4
2018-07-25T04:20:26.187Z,74.0
2018-07-25T04:21:26.867Z,74.3
2018-07-25T04:22:27.592Z,74.1
2018-07-25T04:23:28.273Z,74.2
2018-07-25T04:24:28.954Z,74.8
2018-07-25T04:25:29.634Z,74.8
2018-07-25T04:26:30.315Z,74.8
2018-07-25T04:27:31.042Z,74.7
2018-07-25T04:28:31.729Z,74.4
2018-07-25T04:29:32.403Z,74.2
2018-07-25T04:30:33.087Z,74.2
2018-07-25T04:31:33.813Z,74.3
2018-07-25T04:32:34.494Z,74.1
2018-07-25T04:33:35.174Z,74.1
2018-07-25T04:34:35.899Z,74.0
2018-07-25T04:35:36.535Z,74.4
2018-07-25T04:36:37.220Z,73.9
2018-07-25T04:37:37.942Z,74.0
2018-07-25T04:38:38.623Z,73.9
2018-07-25T04:39:39.305Z,74.1
2018-07-25T04:40:39.984Z,74.1
2018-07-25T04:41:40.667Z,74.2
2018-07-25T04:42:41.378Z,74.2
2018-07-25T04:43:42.072Z,74.5
2018-07-25T04:44:42.806Z,74.3
2018-07-25T04:45:43.475Z,74.5
2018-07-25T04:46:44.212Z,74.2
2018-07-25T04:47:44.840Z,74.2
2018-07-25T04:48:45.519Z,74.2
2018-07-25T04:49:46.203Z,74.3
2018-07-25T04:50:46.884Z,74.2
2018-07-25T04:51:47.566Z,73.9
2018-07-25T04:52:48.247Z,73.9
2018-07-25T04:53:48.930Z,74.0
2018-07-25T04:54:49.611Z,73.5
2018-07-25T04:55:50.294Z,73.7
2018-07-25T04:56:50.976Z,73.3
2018-07-25T04:57:51.656Z,73.5
2018-07-25T04:58:52.341Z,73.8
2018-07-25T04:59:53.023Z,73.7
2018-07-25T05:00:53.702Z,73.4
2018-07-25T05:01:54.390Z,73.4
2018-07-25T05:02:55.070Z,73.4
2018-07-25T05:03:55.749Z,73.6
2018-07-25T05:04:56.433Z,73.7
2018-07-25T05:05:57.115Z,73.4
2018-07-25T05:06:57.796Z,73.4
2018-07-25T05:07:58.478Z,73.1
2018-07-25T05:08:59.158Z,73.1
2018-07-25T05:09:59.884Z,73.3
2018-07-25T05:11:00.566Z,73.2
2018-07-25T05:12:01.249Z,73.5
2018-07-25T05:13:01.980Z,73.3
2018-07-25T05:14:02.708Z,73.0
2018-07-25T05:15:03.388Z,73.0
2018-07-25T05:16:04.069Z,73.1
2018-07-25T05:17:04.751Z,73.4
2018-07-25T05:18:05.436Z,73.0
2018-07-25T05:19:06.114Z,73.0
2018-07-25T05:20:06.801Z,72.9
2018-07-25T05:21:07.478Z,73.0
2018-07-25T05:22:08.161Z,73.0
2018-07-25T05:23:08.896Z,72.8
2018-07-25T05:24:09.525Z,73.2
2018-07-25T05:25:10.206Z,73.0
2018-07-25T05:26:10.888Z,73.1
2018-07-25T05:27:11.568Z,72.8
2018-07-25T05:28:12.293Z,72.9
2018-07-25T05:29:12.984Z,72.6
2018-07-25T05:30:13.750Z,72.6
2018-07-25T05:31:14.387Z,72.6
2018-07-25T05:32:15.067Z,72.1
2018-07-25T05:33:15.747Z,72.5
2018-07-25T05:34:16.430Z,72.3
2018-07-25T05:35:17.117Z,72.5
2018-07-25T05:36:17.792Z,72.0
2018-07-25T05:37:18.475Z,72.3
2018-07-25T05:38:19.156Z,71.9
2018-07-25T05:39:19.838Z,71.7
2018-07-25T05:40:20.519Z,71.4
2018-07-25T05:41:21.199Z,71.4
2018-07-25T05:42:21.881Z,71.1
2018-07-25T05:43:22.564Z,71.4
2018-07-25T05:44:23.246Z,71.1
2018-07-25T05:45:23.929Z,71.2
2018-07-25T05:46:24.655Z,71.1
2018-07-25T05:47:25.336Z,70.7
2018-07-25T05:48:26.024Z,70.4
2018-07-25T05:49:26.707Z,70.1
2018-07-25T05:50:27.417Z,70.0
2018-07-25T05:51:28.097Z,69.5
2018-07-25T05:52:28.779Z,69.9
2018-07-25T05:53:29.462Z,69.6
2018-07-25T05:54:30.144Z,69.2
2018-07-25T05:55:30.871Z,69.6
2018-07-25T05:56:31.553Z,69.0
2018-07-25T05:57:32.234Z,69.0
2018-07-25T05:58:32.916Z,68.6
2018-07-25T05:59:33.598Z,68.4
2018-07-25T06:00:34.279Z,68.7
2018-07-25T06:01:34.963Z,68.4
2018-07-25T06:02:35.644Z,68.5
2018-07-25T06:03:36.328Z,68.4
2018-07-25T06:04:37.010Z,68.5
2018-07-25T06:05:37.690Z,68.7
2018-07-25T06:06:38.423Z,68.0
2018-07-25T06:07:39.106Z,68.4
2018-07-25T06:08:39.798Z,68.2
2018-07-25T06:09:40.513Z,67.8
2018-07-25T06:10:41.234Z,67.2
2018-07-25T06:11:41.916Z,67.1
2018-07-25T06:12:42.649Z,66.9
2018-07-25T06:13:43.282Z,67.2
2018-07-25T06:14:44.007Z,67.2
2018-07-25T06:15:44.693Z,66.9
2018-07-25T06:16:45.372Z,66.9
2018-07-25T06:17:46.055Z,66.6
2018-07-25T06:18:46.739Z,66.7
2018-07-25T06:19:47.422Z,66.3
2018-07-25T06:20:48.105Z,65.9
2018-07-25T06:21:48.789Z,66.1
2018-07-25T06:22:49.472Z,65.9
2018-07-25T06:23:50.154Z,65.7
2018-07-25T06:24:50.838Z,65.3
2018-07-25T06:25:51.559Z,65.2
2018-07-25T06:26:52.203Z,65.4
2018-07-25T06:27:52.887Z,65.6
2018-07-25T06:28:53.580Z,64.9
2018-07-25T06:29:54.298Z,64.3
2018-07-25T06:30:54.984Z,62.8
2018-07-25T06:31:55.670Z,60.4
2018-07-25T06:32:56.354Z,57.4
2018-07-25T06:33:57.046Z,55.1
2018-07-25T06:34:57.771Z,51.1
2018-07-25T06:35:58.459Z,49.1
2018-07-25T06:36:59.187Z,46.9
2018-07-25T06:37:59.927Z,44.5
2018-07-25T06:39:00.559Z,42.7
2018-07-25T06:40:01.248Z,40.5
2018-07-25T06:41:01.934Z,39.0
2018-07-25T06:42:02.665Z,37.5
2018-07-25T06:43:03.353Z,35.9
2018-07-25T06:44:04.043Z,35.0
2018-07-25T06:45:04.731Z,33.7
2018-07-25T06:46:05.420Z,32.6
2018-07-25T06:47:06.109Z,30.9
2018-07-25T06:48:06.798Z,30.4
2018-07-25T06:49:07.489Z,29.5
2018-07-25T06:50:08.179Z,28.6
2018-07-25T06:51:08.874Z,28.7
2018-07-25T06:52:09.566Z,28.4
2018-07-25T06:53:10.258Z,28.3
2018-07-25T06:54:10.948Z,27.2
2018-07-25T06:55:11.658Z,26.9
2018-07-25T06:56:12.332Z,26.5
2018-07-25T06:57:13.030Z,26.2
2018-07-25T06:58:13.761Z,25.6
2018-07-25T06:59:14.452Z,25.4
2018-07-25T07:00:15.143Z,24.5
2018-07-25T07:01:15.835Z,24.3
2018-07-25T07:02:16.531Z,24.0
2018-07-25T07:03:17.221Z,23.5
2018-07-25T07:04:17.912Z,23.3
2018-07-25T07:05:18.605Z,22.9
2018-07-25T07:06:19.300Z,22.3
2018-07-25T07:07:19.989Z,22.5
2018-07-25T07:08:20.702Z,21.9
2018-07-25T07:09:21.420Z,21.9
2018-07-25T07:10:22.113Z,22.5
2018-07-25T07:11:22.809Z,22.4
2018-07-25T07:12:23.498Z,22.6
2018-07-25T07:13:24.192Z,21.4
2018-07-25T07:14:24.885Z,21.4
2018-07-25T07:15:25.579Z,21.3
2018-07-25T07:16:26.270Z,21.3
2018-07-25T07:17:26.984Z,21.4
2018-07-25T07:18:27.658Z,21.3
2018-07-25T07:19:28.351Z,21.6
2018-07-25T07:20:29.043Z,21.6
2018-07-25T07:21:29.737Z,21.8
2018-07-25T07:22:30.432Z,21.4
2018-07-25T07:23:31.126Z,20.4
2018-07-25T07:24:31.819Z,20.1
2018-07-25T07:25:32.512Z,19.9
2018-07-25T07:26:33.206Z,19.6
2018-07-25T07:27:33.899Z,19.4
2018-07-25T07:28:34.591Z,19.6
2018-07-25T07:29:35.285Z,19.4
2018-07-25T07:30:35.979Z,18.9
2018-07-25T07:31:36.674Z,19.7
2018-07-25T07:32:37.410Z,18.9
2018-07-25T07:33:38.107Z,19.3
2018-07-25T07:34:38.796Z,19.4
2018-07-25T07:35:39.490Z,19.4
2018-07-25T07:36:40.183Z,18.9
2018-07-25T07:37:40.911Z,18.8
2018-07-25T07:38:41.568Z,18.2
2018-07-25T07:39:42.264Z,17.9
2018-07-25T07:40:43.002Z,17.2
2018-07-25T07:41:43.697Z,17.3
2018-07-25T07:42:44.434Z,17.5
2018-07-25T07:43:45.129Z,17.2
2018-07-25T07:44:45.822Z,17.1
2018-07-25T07:45:46.517Z,17.2
2018-07-25T07:46:47.209Z,17.0
2018-07-25T07:47:48.012Z,17.0
2018-07-25T07:48:48.595Z,16.6
2018-07-25T07:49:49.289Z,17.1
2018-07-25T07:50:49.982Z,17.4
2018-07-25T07:51:50.673Z,17.9
2018-07-25T07:52:51.367Z,17.9
2018-07-25T07:53:52.064Z,17.8
2018-07-25T07:54:52.753Z,17.4
2018-07-25T07:55:53.446Z,17.2
2018-07-25T07:56:54.145Z,17.2
2018-07-25T07:57:54.832Z,17.3
2018-07-25T07:58:55.523Z,16.7
2018-07-25T07:59:56.216Z,16.9
2018-07-25T08:00:56.910Z,16.0
2018-07-25T08:01:57.602Z,16.4
2018-07-25T08:02:58.293Z,17.1
2018-07-25T08:03:58.988Z,17.1
2018-07-25T08:04:59.704Z,17.2
2018-07-25T08:06:00.410Z,17.3
2018-07-25T08:07:01.105Z,17.5
2018-07-25T08:08:01.797Z,17.4
2018-07-25T08:09:02.491Z,17.3
2018-07-25T08:10:03.183Z,17.1
2018-07-25T08:11:03.876Z,17.3
2018-07-25T08:12:04.568Z,17.1
2018-07-25T08:13:05.261Z,17.0
2018-07-25T08:14:05.953Z,16.9
2018-07-25T08:15:06.642Z,16.6
2018-07-25T08:16:07.333Z,16.8
2018-07-25T08:17:08.026Z,16.6
2018-07-25T08:18:08.717Z,16.5
2018-07-25T08:19:09.407Z,16.6
2018-07-25T08:20:10.099Z,16.1
2018-07-25T08:21:10.879Z,16.2
2018-07-25T08:22:11.481Z,16.1
2018-07-25T08:23:12.172Z,16.7
2018-07-25T08:24:12.863Z,16.4
2018-07-25T08:25:13.556Z,16.6
2018-07-25T08:26:14.266Z,16.6
2018-07-25T08:27:14.940Z,16.6
2018-07-25T08:28:15.631Z,16.4
2018-07-25T08:29:16.322Z,16.3
2018-07-25T08:30:17.014Z,15.7
2018-07-25T08:31:17.709Z,15.8
2018-07-25T08:32:18.442Z,15.6
2018-07-25T08:33:19.135Z,15.4
2018-07-25T08:34:19.827Z,15.9
2018-07-25T08:35:20.518Z,15.9
2018-07-25T08:36:21.211Z,15.9
2018-07-25T08:37:21.947Z,15.4
2018-07-25T08:38:22.638Z,15.3
2018-07-25T08:39:23.330Z,15.3
2018-07-25T08:40:24.024Z,15.3
2018-07-25T08:41:24.760Z,15.4
2018-07-25T08:42:25.449Z,15.2
2018-07-25T08:43:26.143Z,14.8
2018-07-25T08:44:26.879Z,14.6
2018-07-25T08:45:27.570Z,14.8
2018-07-25T08:46:28.265Z,14.8
2018-07-25T08:47:28.996Z,15.0
2018-07-25T08:48:29.689Z,15.2
2018-07-25T08:49:30.380Z,15.5
2018-07-25T08:50:31.074Z,15.2
2018-07-25T08:51:31.765Z,15.0
2018-07-25T08:52:32.559Z,14.8
2018-07-25T08:53:33.185Z,15.2
2018-07-25T08:54:33.876Z,15.0
2018-07-25T08:55:34.584Z,14.8
2018-07-25T08:56:35.306Z,15.6
2018-07-25T08:57:35.996Z,15.8
2018-07-25T08:58:36.691Z,15.8
2018-07-25T08:59:37.383Z,15.9
2018-07-25T09:00:38.118Z,15.2
2018-07-25T09:01:38.761Z,14.8
2018-07-25T09:02:39.452Z,15.2
2018-07-25T09:03:40.143Z,15.0
2018-07-25T09:04:40.835Z,15.4
2018-07-25T09:05:41.527Z,16.0
2018-07-25T09:06:42.229Z,16.7
2018-07-25T09:07:43.043Z,16.6
2018-07-25T09:08:43.652Z,16.5
2018-07-25T09:09:44.370Z,16.3
2018-07-25T09:10:45.037Z,15.1
2018-07-25T09:11:45.731Z,15.4
2018-07-25T09:12:46.469Z,14.9
2018-07-25T09:13:47.110Z,14.9
2018-07-25T09:14:47.802Z,15.2
2018-07-25T09:15:48.495Z,14.8
2018-07-25T09:16:49.238Z,14.7
2018-07-25T09:17:49.916Z,14.7
2018-07-25T09:18:50.609Z,14.7
2018-07-25T09:19:51.327Z,15.0
2018-07-25T09:20:51.995Z,15.1
2018-07-25T09:21:52.684Z,14.9
2018-07-25T09:22:53.375Z,15.1
2018-07-25T09:23:54.069Z,15.1
2018-07-25T09:24:54.759Z,15.2
2018-07-25T09:25:55.450Z,15.8
2018-07-25T09:26:56.144Z,15.9
2018-07-25T09:27:56.836Z,15.4
2018-07-25T09:28:57.530Z,15.3
2018-07-25T09:29:58.266Z,15.1
2018-07-25T09:30:58.956Z,14.9
2018-07-25T09:31:59.649Z,14.9
2018-07-25T09:33:00.339Z,15.3
2018-07-25T09:34:01.088Z,15.9
2018-07-25T09:35:01.725Z,15.8
2018-07-25T09:36:02.417Z,16.2
2018-07-25T09:37:03.111Z,16.3
2018-07-25T09:38:03.801Z,16.6
2018-07-25T09:39:04.514Z,16.5
2018-07-25T09:40:05.185Z,17.4
2018-07-25T09:41:05.950Z,17.2
2018-07-25T09:42:06.568Z,17.1
2018-07-25T09:43:07.258Z,17.5
2018-07-25T09:44:07.953Z,17.4
2018-07-25T09:45:08.644Z,17.2
2018-07-25T09:46:09.333Z,16.9
2018-07-25T09:47:10.132Z,17.3
2018-07-25T09:48:10.717Z,17.2
2018-07-25T09:49:11.408Z,17.3
2018-07-25T09:50:12.105Z,17.1
2018-07-25T09:51:12.791Z,17.5
2018-07-25T09:52:13.481Z,17.2
2018-07-25T09:53:14.236Z,18.1
2018-07-25T09:54:14.869Z,18.0
2018-07-25T09:55:15.561Z,18.3
2018-07-25T09:56:16.292Z,18.5
2018-07-25T09:57:16.983Z,18.4
2018-07-25T09:58:17.675Z,18.5
2018-07-25T09:59:18.392Z,18.5
2018-07-25T10:00:19.097Z,18.4
2018-07-25T10:01:19.794Z,18.5
2018-07-25T10:02:20.523Z,18.7
2018-07-25T10:03:21.216Z,19.0
2018-07-25T10:04:21.907Z,18.7
2018-07-25T10:05:22.603Z,18.3
2018-07-25T10:06:23.363Z,18.0
2018-07-25T10:07:24.130Z,18.0
2018-07-25T10:08:24.717Z,17.7
2018-07-25T10:09:25.428Z,18.0
2018-07-25T10:10:26.103Z,18.3
2018-07-25T10:11:26.794Z,18.5
2018-07-25T10:12:27.528Z,18.4
2018-07-25T10:13:28.219Z,18.5
2018-07-25T10:14:28.911Z,18.9
2018-07-25T10:15:29.626Z,18.9
2018-07-25T10:16:30.296Z,18.9
2018-07-25T10:17:31.015Z,18.5
2018-07-25T10:18:31.682Z,18.8
2018-07-25T10:19:32.375Z,19.1
2018-07-25T10:20:33.168Z,19.0
2018-07-25T10:21:33.835Z,18.7
2018-07-25T10:22:34.526Z,19.1
2018-07-25T10:23:35.217Z,18.6
2018-07-25T10:24:35.921Z,18.7
2018-07-25T10:25:36.602Z,18.8
2018-07-25T10:26:37.336Z,19.5
2018-07-25T10:27:38.045Z,19.3
2018-07-25T10:28:38.718Z,19.2
2018-07-25T10:29:39.428Z,19.5
2018-07-25T10:30:40.101Z,20.1
2018-07-25T10:31:40.792Z,21.0
2018-07-25T10:32:41.530Z,21.4
2018-07-25T10:33:42.219Z,21.4
2018-07-25T10:34:42.976Z,21.4
2018-07-25T10:35:43.676Z,21.8
2018-07-25T10:36:44.339Z,21.9
2018-07-25T10:37:45.030Z,22.1
2018-07-25T10:38:45.720Z,22.5
2018-07-25T10:39:46.439Z,22.4
2018-07-25T10:40:47.102Z,22.9
2018-07-25T10:41:47.794Z,23.3
2018-07-25T10:42:48.484Z,22.2
2018-07-25T10:43:49.176Z,23.2
2018-07-25T10:44:49.867Z,23.1
2018-07-25T10:45:50.593Z,24.0
2018-07-25T10:46:51.249Z,24.0
2018-07-25T10:47:51.940Z,24.4
2018-07-25T10:48:52.701Z,24.7
2018-07-25T10:49:53.323Z,24.9
2018-07-25T10:50:54.015Z,25.2
2018-07-25T10:51:54.709Z,25.3
2018-07-25T10:52:55.395Z,25.8
2018-07-25T10:53:56.087Z,26.3
2018-07-25T10:54:56.781Z,26.6
2018-07-25T10:55:57.596Z,26.2
2018-07-25T10:56:58.240Z,26.2
2018-07-25T10:57:58.931Z,26.8
2018-07-25T10:58:59.623Z,27.1
2018-07-25T11:00:00.314Z,27.2
2018-07-25T11:01:01.006Z,27.6
2018-07-25T11:02:01.750Z,27.4
2018-07-25T11:03:02.391Z,27.5
2018-07-25T11:04:03.126Z,27.3
2018-07-25T11:05:03.770Z,27.2
2018-07-25T11:06:04.462Z,27.6
2018-07-25T11:07:05.154Z,28.2
2018-07-25T11:08:05.842Z,27.9
2018-07-25T11:09:06.578Z,28.3
2018-07-25T11:10:07.262Z,28.8
2018-07-25T11:11:07.953Z,28.2
2018-07-25T11:12:08.645Z,28.3
2018-07-25T11:13:09.334Z,28.1
2018-07-25T11:14:10.027Z,28.3
2018-07-25T11:15:10.718Z,28.2
2018-07-25T11:16:11.416Z,28.1
2018-07-25T11:17:12.106Z,28.2
2018-07-25T11:18:12.796Z,28.1
2018-07-25T11:19:13.488Z,28.0
2018-07-25T11:20:14.180Z,28.8
2018-07-25T11:21:14.869Z,28.2
2018-07-25T11:22:15.561Z,28.8
2018-07-25T11:23:16.254Z,29.1
2018-07-25T11:24:16.949Z,29.2
2018-07-25T11:25:17.719Z,28.7
2018-07-25T11:26:18.407Z,28.8
2018-07-25T11:27:19.097Z,28.8
2018-07-25T11:28:19.789Z,29.0
2018-07-25T11:29:20.481Z,29.3
2018-07-25T11:30:21.170Z,28.9
2018-07-25T11:31:21.862Z,28.8
2018-07-25T11:32:22.559Z,28.8
2018-07-25T11:33:23.242Z,29.1
2018-07-25T11:34:23.935Z,28.9
2018-07-25T11:35:24.668Z,28.5
2018-07-25T11:36:25.359Z,28.6
2018-07-25T11:37:26.051Z,28.6
2018-07-25T11:38:26.742Z,28.0
2018-07-25T11:39:27.449Z,28.2
2018-07-25T11:40:28.166Z,28.2
2018-07-25T11:41:28.857Z,28.4
2018-07-25T11:42:29.548Z,28.3
2018-07-25T11:43:30.242Z,28.1
2018-07-25T11:44:30.928Z,28.2
2018-07-25T11:45:31.618Z,28.4
2018-07-25T11:46:32.307Z,28.3
2018-07-25T11:47:33.039Z,28.8
2018-07-25T11:48:33.733Z,29.2
2018-07-25T11:49:34.468Z,29.2
2018-07-25T11:50:35.162Z,28.9
2018-07-25T11:51:35.848Z,28.6
2018-07-25T11:52:36.540Z,29.1
2018-07-25T11:53:37.228Z,28.8
2018-07-25T11:54:37.920Z,28.8
2018-07-25T11:55:38.641Z,28.6
2018-07-25T11:56:39.298Z,28.5
2018-07-25T11:57:39.989Z,28.1
2018-07-25T11:58:40.679Z,28.4
2018-07-25T11:59:41.368Z,28.0
2018-07-25T12:00:42.061Z,28.1
2018-07-25T12:01:42.773Z,27.6
2018-07-25T12:02:43.440Z,27.4
2018-07-25T12:03:44.132Z,27.1
2018-07-25T12:04:44.822Z,27.4
2018-07-25T12:05:45.535Z,27.1
2018-07-25T12:06:46.204Z,26.9
2018-07-25T12:07:46.895Z,26.7
2018-07-25T12:08:47.633Z,26.5
2018-07-25T12:09:48.323Z,26.5
2018-07-25T12:10:49.013Z,26.9
2018-07-25T12:11:49.703Z,27.1
2018-07-25T12:12:50.409Z,27.2
2018-07-25T12:13:51.083Z,27.5
2018-07-25T12:14:51.773Z,27.1
2018-07-25T12:15:52.464Z,27.1
2018-07-25T12:16:53.154Z,28.2
2018-07-25T12:17:53.844Z,28.0
2018-07-25T12:18:54.537Z,28.3
2018-07-25T12:19:55.225Z,28.5
2018-07-25T12:20:55.919Z,28.4
2018-07-25T12:21:56.608Z,28.9
2018-07-25T12:22:57.297Z,28.7
2018-07-25T12:23:57.987Z,28.8
2018-07-25T12:24:58.706Z,28.8
2018-07-25T12:25:59.405Z,29.1
2018-07-25T12:27:00.097Z,29.1
2018-07-25T12:28:00.786Z,29.1
2018-07-25T12:29:01.476Z,28.8
2018-07-25T12:30:02.166Z,28.7
2018-07-25T12:31:02.857Z,28.8
2018-07-25T12:32:03.556Z,28.5
2018-07-25T12:33:04.238Z,28.3
2018-07-25T12:34:04.930Z,28.2
2018-07-25T12:35:05.638Z,28.5
2018-07-25T12:36:06.346Z,28.0
2018-07-25T12:37:07.038Z,27.5
2018-07-25T12:38:07.727Z,27.4
2018-07-25T12:39:08.415Z,27.9
2018-07-25T12:40:09.107Z,28.1
2018-07-25T12:41:09.799Z,27.7
2018-07-25T12:42:10.487Z,27.6
2018-07-25T12:43:11.181Z,27.2
2018-07-25T12:44:11.868Z,27.5
2018-07-25T12:45:12.557Z,27.4
2018-07-25T12:46:13.251Z,27.3
2018-07-25T12:47:13.942Z,27.1
2018-07-25T12:48:14.633Z,27.5
2018-07-25T12:49:15.324Z,27.2
2018-07-25T12:50:16.016Z,27.1
2018-07-25T12:51:16.704Z,26.8
2018-07-25T12:52:17.397Z,27.0
2018-07-25T12:53:18.187Z,27.3
2018-07-25T12:54:18.778Z,28.0
2018-07-25T12:55:19.468Z,27.2
2018-07-25T12:56:20.159Z,27.5
2018-07-25T12:57:20.848Z,27.7
2018-07-25T12:58:21.540Z,27.7
2018-07-25T12:59:22.230Z,27.1
2018-07-25T13:00:22.964Z,27.3
2018-07-25T13:01:23.654Z,27.4
2018-07-25T13:02:24.345Z,27.9
2018-07-25T13:03:25.036Z,28.1
2018-07-25T13:04:25.725Z,28.0
2018-07-25T13:05:26.420Z,28.1
2018-07-25T13:06:27.150Z,28.4
2018-07-25T13:07:27.840Z,28.4
2018-07-25T13:08:28.532Z,28.5
2018-07-25T13:09:29.223Z,28.2
2018-07-25T13:10:29.958Z,28.5
2018-07-25T13:11:30.602Z,28.7
2018-07-25T13:12:31.338Z,27.6
2018-07-25T13:13:32.078Z,27.6
2018-07-25T13:14:32.767Z,27.7
2018-07-25T13:15:33.458Z,28.5
2018-07-25T13:16:34.154Z,28.3
2018-07-25T13:17:34.877Z,28.3
2018-07-25T13:18:35.570Z,27.9
2018-07-25T13:19:36.260Z,27.5
2018-07-25T13:20:36.949Z,27.3
2018-07-25T13:21:37.647Z,27.1
2018-07-25T13:22:38.421Z,27.5
2018-07-25T13:23:39.097Z,27.2
2018-07-25T13:24:39.798Z,27.4
2018-07-25T13:25:40.488Z,27.1
2018-07-25T13:26:41.177Z,27.2
2018-07-25T13:27:41.871Z,26.8
2018-07-25T13:28:42.582Z,26.8
2018-07-25T13:29:43.249Z,27.2
2018-07-25T13:30:43.940Z,26.8
2018-07-25T13:31:44.632Z,26.9